createdAt,value
2022-12-28T05:17:15.895Z,100417.78
2022-12-28T05:19:42.478Z,100412.78
2022-12-28T05:22:11.952Z,100409.16
2022-12-28T05:24:39.429Z,100413.69
2022-12-28T05:27:06.115Z,100400.44
2022-12-28T05:29:32.677Z,100389.16
2022-12-28T05:31:59.397Z,100396.16
2022-12-28T05:34:26.180Z,100384.81
2022-12-28T05:36:52.939Z,100390.19
2022-12-28T05:39:19.536Z,100378.78
2022-12-28T05:41:46.055Z,100376.09
2022-12-28T05:44:12.553Z,100374.31
2022-12-28T05:46:39.066Z,100377.09
2022-12-28T05:49:09.193Z,100376.13
2022-12-28T05:51:36.103Z,100368.25
2022-12-28T05:54:06.549Z,100362.28
2022-12-28T05:56:33.626Z,100359.59
2022-12-28T05:59:02.478Z,100344.06
2022-12-28T06:01:32.140Z,100350.03
2022-12-28T06:04:03.656Z,100347.47
2022-12-28T06:06:31.091Z,100349.13
2022-12-28T06:08:57.932Z,100340.47
2022-12-28T06:11:27.071Z,100340.31
2022-12-28T06:13:54.387Z,100330.16
2022-12-28T06:16:26.204Z,100333.47
2022-12-28T06:18:52.881Z,100329.81
2022-12-28T06:21:20.691Z,100331.53
2022-12-28T06:23:47.683Z,100338.28
2022-12-28T06:26:17.363Z,100333.19
2022-12-28T06:28:44.491Z,100332.59
2022-12-28T06:31:22.171Z,100326.38
2022-12-28T06:33:49.786Z,100326.97
2022-12-28T06:36:20.542Z,100332.25
2022-12-28T06:38:48.895Z,100333.91
2022-12-28T06:41:16.943Z,100322.09
2022-12-28T06:43:45.078Z,100317.84
2022-12-28T06:46:12.978Z,100320.41
2022-12-28T06:48:40.522Z,100324.84
2022-12-28T06:51:11.442Z,100311.88
2022-12-28T06:53:38.648Z,100303.91
2022-12-28T06:56:07.884Z,100309.97
2022-12-28T06:58:34.582Z,100311.84
2022-12-28T07:01:16.119Z,100302.94
2022-12-28T07:03:43.803Z,100299.59
2022-12-28T07:06:11.488Z,100304.50
2022-12-28T07:08:38.005Z,100302.97
2022-12-28T07:11:05.952Z,100293.47
2022-12-28T07:13:33.434Z,100296.09
2022-12-28T07:16:11.531Z,100295.19
2022-12-28T07:18:38.812Z,100286.53
2022-12-28T07:21:13.918Z,100283.97
2022-12-28T07:23:40.454Z,100294.22
2022-12-28T07:26:10.128Z,100288.13
2022-12-28T07:28:38.510Z,100288.19
2022-12-28T07:31:07.062Z,100287.38
2022-12-28T07:33:35.163Z,100286.38
2022-12-28T07:36:02.623Z,100293.16
2022-12-28T07:38:29.162Z,100295.03
2022-12-28T07:41:08.035Z,100292.22
2022-12-28T07:43:35.697Z,100281.75
2022-12-28T07:46:08.287Z,100285.47
2022-12-28T07:48:35.934Z,100286.16
2022-12-28T07:51:20.708Z,100279.09
2022-12-28T07:53:49.387Z,100277.63
2022-12-28T07:56:18.895Z,100273.25
2022-12-28T08:01:17.583Z,100270.50
2022-12-28T08:03:44.713Z,100266.84
2022-12-28T08:06:20.115Z,100278.31
2022-12-28T08:08:50.305Z,100271.44
2022-12-28T08:11:19.959Z,100262.53
2022-12-28T08:13:48.132Z,100262.66
2022-12-28T08:16:16.143Z,100261.06
2022-12-28T08:18:43.010Z,100254.75
2022-12-28T08:21:15.937Z,100256.69
2022-12-28T08:23:42.981Z,100255.00
2022-12-28T08:26:13.942Z,100244.41
2022-12-28T08:28:41.882Z,100236.78
2022-12-28T08:31:11.622Z,100239.88
2022-12-28T08:33:38.439Z,100240.09
2022-12-28T08:36:06.084Z,100238.66
2022-12-28T08:38:33.300Z,100247.88
2022-12-28T08:41:01.753Z,100232.41
2022-12-28T08:43:29.668Z,100234.13
2022-12-28T08:46:01.855Z,100228.78
2022-12-28T08:48:29.061Z,100225.53
2022-12-28T08:51:04.605Z,100234.97
2022-12-28T08:53:31.690Z,100226.34
2022-12-28T08:56:13.416Z,100226.91
2022-12-28T08:58:41.391Z,100226.81
2022-12-28T09:01:13.904Z,100237.91
2022-12-28T09:03:42.413Z,100233.84
2022-12-28T09:06:12.197Z,100241.59
2022-12-28T09:08:39.722Z,100235.47
2022-12-28T09:11:13.391Z,100241.28
2022-12-28T09:13:40.832Z,100252.53
2022-12-28T09:16:13.048Z,100240.44
2022-12-28T09:18:41.316Z,100246.75
2022-12-28T09:21:17.024Z,100242.50
2022-12-28T09:23:45.364Z,100240.06
2022-12-28T09:26:15.286Z,100241.16
2022-12-28T09:28:47.584Z,100242.19
2022-12-28T09:31:15.219Z,100240.09
2022-12-28T09:36:47.265Z,100239.16
2022-12-28T09:39:17.657Z,100236.34
2022-12-28T09:41:51.047Z,100234.13
2022-12-28T09:44:41.711Z,100226.00
2022-12-28T09:47:08.169Z,100232.25
2022-12-28T09:50:03.808Z,100227.78
2022-12-28T09:52:34.581Z,100236.13
2022-12-28T09:55:07.420Z,100229.31
2022-12-28T09:57:38.805Z,100230.94
2022-12-28T10:00:08.148Z,100224.28
2022-12-28T10:02:40.138Z,100224.47
2022-12-28T10:05:07.681Z,100232.78
2022-12-28T10:07:36.895Z,100218.28
2022-12-28T10:10:04.989Z,100230.69
2022-12-28T10:12:31.683Z,100220.66
2022-12-28T10:14:59.872Z,100220.28
2022-12-28T10:17:28.877Z,100215.56
2022-12-28T10:19:58.429Z,100207.56
2022-12-28T10:22:33.286Z,100200.81
2022-12-28T10:25:02.550Z,100199.94
2022-12-28T10:27:32.159Z,100195.31
2022-12-28T10:30:01.707Z,100199.69
2022-12-28T10:32:47.966Z,100196.09
2022-12-28T10:35:26.471Z,100199.13
2022-12-28T10:38:02.831Z,100184.66
2022-12-28T10:40:32.769Z,100185.81
2022-12-28T10:43:02.091Z,100192.84
2022-12-28T10:45:39.808Z,100190.91
2022-12-28T10:48:36.679Z,100193.44
2022-12-28T10:51:21.512Z,100183.44
2022-12-28T10:53:51.275Z,100181.50
2022-12-28T10:56:29.389Z,100179.63
2022-12-28T10:59:25.657Z,100174.19
2022-12-28T11:01:52.222Z,100172.66
2022-12-28T11:04:21.833Z,100175.72
2022-12-28T11:06:56.169Z,100173.69
2022-12-28T11:09:26.059Z,100173.53
2022-12-28T11:11:56.048Z,100169.41
2022-12-28T11:14:33.926Z,100161.53
2022-12-28T11:17:18.052Z,100149.34
2022-12-28T11:19:45.049Z,100155.28
2022-12-28T11:22:13.451Z,100155.66
2022-12-28T11:24:40.597Z,100151.19
2022-12-28T11:27:13.553Z,100148.47
2022-12-28T11:29:46.259Z,100145.56
2022-12-28T11:32:27.541Z,100135.56
2022-12-28T11:35:03.081Z,100127.31
2022-12-28T11:37:29.667Z,100119.66
2022-12-28T11:39:56.392Z,100120.06
2022-12-28T11:42:40.823Z,100103.22
2022-12-28T11:45:46.436Z,100106.00
2022-12-28T11:48:38.903Z,100095.19
2022-12-28T11:51:05.895Z,100090.00
2022-12-28T11:53:42.838Z,100087.66
2022-12-28T11:56:11.467Z,100088.28
2022-12-28T11:58:40.950Z,100082.81
2022-12-28T12:01:33.606Z,100079.16
2022-12-28T12:04:00.233Z,100077.00
2022-12-28T12:06:53.471Z,100075.41
2022-12-28T12:09:25.964Z,100068.50
2022-12-28T12:12:00.945Z,100070.78
2022-12-28T12:14:35.209Z,100068.16
2022-12-28T12:17:32.044Z,100054.66
2022-12-28T12:20:07.051Z,100065.66
2022-12-28T12:22:44.095Z,100054.22
2022-12-28T12:25:16.791Z,100059.59
2022-12-28T12:27:48.514Z,100050.41
2022-12-28T12:30:22.493Z,100058.47
2022-12-28T12:32:52.075Z,100049.78
2022-12-28T12:35:24.850Z,100040.69
2022-12-28T12:38:20.614Z,100034.66
2022-12-28T12:41:08.862Z,100033.53
2022-12-28T12:43:57.544Z,100031.75
2022-12-28T12:46:48.532Z,100032.53
2022-12-28T12:49:27.304Z,100041.88
2022-12-28T12:52:23.066Z,100030.78
2022-12-28T12:55:06.191Z,100030.06
2022-12-28T12:57:44.744Z,100027.69
2022-12-28T13:00:14.630Z,100025.22
2022-12-28T13:02:53.300Z,100024.44
2022-12-28T13:05:23.646Z,100022.75
2022-12-28T13:07:50.899Z,100019.34
2022-12-28T13:10:23.382Z,100014.59
2022-12-28T13:12:59.728Z,100018.38
2022-12-28T13:15:27.127Z,100013.84
2022-12-28T13:18:44.015Z,100006.91
2022-12-28T13:21:12.867Z,100002.00
2022-12-28T13:23:45.163Z,99998.13
2022-12-28T13:26:14.539Z,100002.28
2022-12-28T13:28:53.615Z,99994.84
2022-12-28T13:31:31.704Z,99995.00
2022-12-28T13:34:03.629Z,99986.38
2022-12-28T13:36:30.497Z,99977.34
2022-12-28T13:39:15.476Z,99976.19
2022-12-28T13:41:53.677Z,99970.81
2022-12-28T13:44:50.351Z,99965.63
2022-12-28T13:47:26.078Z,99965.94
2022-12-28T13:50:21.932Z,99966.72
2022-12-28T13:52:54.386Z,99967.72
2022-12-28T13:55:27.143Z,99960.00
2022-12-28T13:58:00.142Z,99953.47
2022-12-28T14:00:29.191Z,99960.47
2022-12-28T14:02:58.613Z,99953.03
2022-12-28T14:05:28.367Z,99944.28
2022-12-28T14:07:58.509Z,99940.56
2022-12-28T14:10:26.120Z,99938.84
2022-12-28T14:12:53.692Z,99936.53
2022-12-28T14:15:22.042Z,99938.25
2022-12-28T14:17:51.963Z,99931.88
2022-12-28T14:20:19.213Z,99928.94
2022-12-28T14:22:45.844Z,99924.47
2022-12-28T14:25:15.515Z,99921.72
2022-12-28T14:28:06.218Z,99927.91
2022-12-28T14:30:39.649Z,99923.97
2022-12-28T14:33:24.367Z,99926.31
2022-12-28T14:35:58.933Z,99928.03
2022-12-28T14:38:28.991Z,99924.66
2022-12-28T14:40:58.900Z,99924.59
2022-12-28T14:43:31.914Z,99924.69
2022-12-28T14:46:15.610Z,99925.19
2022-12-28T14:48:45.429Z,99918.53
2022-12-28T14:51:14.965Z,99910.00
2022-12-28T14:53:42.038Z,99898.19
2022-12-28T14:56:16.354Z,99904.63
2022-12-28T14:58:52.109Z,99899.78
2022-12-28T15:01:21.570Z,99906.84
2022-12-28T15:03:51.000Z,99907.56
2022-12-28T15:06:19.844Z,99904.28
2022-12-28T15:08:50.906Z,99892.00
2022-12-28T15:11:19.265Z,99892.28
2022-12-28T15:13:46.337Z,99886.31
2022-12-28T15:16:13.742Z,99882.78
2022-12-28T15:18:45.110Z,99877.13
2022-12-28T15:21:13.434Z,99874.53
2022-12-28T15:23:39.902Z,99872.50
2022-12-28T15:26:11.496Z,99861.78
2022-12-28T15:28:38.762Z,99853.88
2022-12-28T15:31:18.362Z,99850.97
2022-12-28T15:33:45.841Z,99858.00
2022-12-28T15:36:17.798Z,99856.88
2022-12-28T15:38:46.003Z,99845.19
2022-12-28T15:41:41.877Z,99854.53
2022-12-28T15:44:08.375Z,99839.88
2022-12-28T15:46:35.380Z,99840.13
2022-12-28T15:49:02.674Z,99845.13
2022-12-28T15:51:29.225Z,99838.63
2022-12-28T15:53:55.685Z,99826.22
2022-12-28T15:56:23.880Z,99824.34
2022-12-28T15:58:53.674Z,99816.44
2022-12-28T16:01:20.471Z,99816.72
2022-12-28T16:03:54.961Z,99822.19
2022-12-28T16:06:23.021Z,99823.25
2022-12-28T16:08:53.188Z,99822.53
2022-12-28T16:11:20.737Z,99819.94
2022-12-28T16:13:55.188Z,99821.44
2022-12-28T16:16:22.936Z,99816.38
2022-12-28T16:18:50.582Z,99818.63
2022-12-28T16:21:17.192Z,99810.00
2022-12-28T16:23:45.066Z,99808.84
2022-12-28T16:26:13.340Z,99808.56
2022-12-28T16:28:40.317Z,99804.41
2022-12-28T16:31:07.143Z,99805.09
2022-12-28T16:33:33.852Z,99817.16
2022-12-28T16:36:00.349Z,99811.13
2022-12-28T16:38:28.866Z,99810.47
2022-12-28T16:40:56.983Z,99809.69
2022-12-28T16:43:23.916Z,99808.13
2022-12-28T16:45:50.782Z,99814.09
2022-12-28T16:48:17.466Z,99808.72
2022-12-28T16:50:45.069Z,99812.28
2022-12-28T16:53:11.635Z,99804.34
2022-12-28T16:55:43.392Z,99806.97
2022-12-28T16:58:10.573Z,99808.97
2022-12-28T17:00:41.480Z,99802.22
2022-12-28T17:03:08.194Z,99800.50
2022-12-28T17:05:35.476Z,99795.13
2022-12-28T17:11:11.381Z,99806.03
2022-12-28T17:13:38.600Z,99804.06
2022-12-28T17:16:06.733Z,99799.66
2022-12-28T17:18:37.327Z,99801.06
2022-12-28T17:21:18.250Z,99798.44
2022-12-28T17:23:47.901Z,99788.47
2022-12-28T17:26:14.651Z,99787.69
2022-12-28T17:28:41.170Z,99771.94
2022-12-28T17:31:14.301Z,99792.81
2022-12-28T17:33:49.322Z,99792.91
2022-12-28T17:36:25.061Z,99783.78
2022-12-28T17:38:51.712Z,99774.38
2022-12-28T17:41:24.463Z,99771.41
2022-12-28T17:43:56.168Z,99759.38
2022-12-28T17:46:25.972Z,99756.53
2022-12-28T17:48:54.209Z,99745.81
2022-12-28T17:51:21.418Z,99750.38
2022-12-28T17:53:49.067Z,99747.84
2022-12-28T17:56:16.299Z,99737.78
2022-12-28T17:58:44.306Z,99733.03
2022-12-28T18:01:13.053Z,99730.09
2022-12-28T18:03:39.912Z,99729.31
2022-12-28T18:06:07.433Z,99713.63
2022-12-28T18:08:34.040Z,99710.72
2022-12-28T18:11:00.943Z,99717.88
2022-12-28T18:13:27.716Z,99721.13
2022-12-28T18:15:55.042Z,99711.56
2022-12-28T18:18:21.606Z,99704.44
2022-12-28T18:21:21.697Z,99707.56
2022-12-28T18:23:50.981Z,99693.06
2022-12-28T18:26:22.480Z,99686.66
2022-12-28T18:28:50.158Z,99689.63
2022-12-28T18:31:17.058Z,99685.34
2022-12-28T18:33:43.885Z,99678.09
2022-12-28T18:36:16.812Z,99668.50
2022-12-28T18:38:44.877Z,99662.03
2022-12-28T18:41:13.613Z,99663.06
2022-12-28T18:43:40.623Z,99647.38
2022-12-28T18:46:08.942Z,99653.34
2022-12-28T18:48:38.333Z,99639.19
2022-12-28T18:51:08.584Z,99638.13
2022-12-28T18:53:35.988Z,99636.41
2022-12-28T18:56:09.050Z,99639.44
2022-12-28T18:58:37.254Z,99628.31
2022-12-28T19:01:06.729Z,99632.97
2022-12-28T19:03:33.949Z,99625.66
2022-12-28T19:06:09.399Z,99642.16
2022-12-28T19:08:39.054Z,99631.66
2022-12-28T19:11:06.633Z,99635.91
2022-12-28T19:13:35.475Z,99630.69
2022-12-28T19:16:08.576Z,99617.91
2022-12-28T19:18:35.228Z,99620.94
2022-12-28T19:21:31.659Z,99620.88
2022-12-28T19:24:03.151Z,99615.47
2022-12-28T19:26:31.228Z,99607.78
2022-12-28T19:29:00.752Z,99603.50
2022-12-28T19:31:28.114Z,99606.63
2022-12-28T19:33:54.811Z,99602.09
2022-12-28T19:36:21.320Z,99601.34
2022-12-28T19:38:48.233Z,99589.44
2022-12-28T19:41:16.349Z,99587.16
2022-12-28T19:43:43.864Z,99577.84
2022-12-28T19:46:30.801Z,99572.31
2022-12-28T19:48:59.132Z,99570.16
2022-12-28T19:51:30.502Z,99573.13
2022-12-28T19:53:58.707Z,99571.16
2022-12-28T19:56:25.599Z,99560.09
2022-12-28T19:58:56.623Z,99549.97
2022-12-28T20:01:29.037Z,99555.66
2022-12-28T20:03:56.556Z,99555.13
2022-12-28T20:06:27.435Z,99554.34
2022-12-28T20:08:56.945Z,99552.22
2022-12-28T20:11:23.969Z,99549.59
2022-12-28T20:13:52.010Z,99549.59
2022-12-28T20:16:19.468Z,99531.81
2022-12-28T20:18:50.580Z,99537.84
2022-12-28T20:21:20.347Z,99537.22
2022-12-28T20:23:48.882Z,99538.34
2022-12-28T20:26:16.241Z,99537.19
2022-12-28T20:28:43.278Z,99529.78
2022-12-28T20:31:13.983Z,99523.22
2022-12-28T20:33:43.303Z,99526.59
2022-12-28T20:37:00.555Z,99522.63
2022-12-28T20:39:27.095Z,99527.47
2022-12-28T20:42:12.392Z,99521.59
2022-12-28T20:44:39.028Z,99526.41
2022-12-28T20:47:05.675Z,99530.94
2022-12-28T20:49:32.385Z,99524.63
2022-12-28T20:51:58.974Z,99517.03
2022-12-28T20:54:25.778Z,99529.47
2022-12-28T20:56:55.440Z,99513.41
2022-12-28T20:59:24.645Z,99519.69
2022-12-28T21:01:51.964Z,99511.34
2022-12-28T21:04:18.579Z,99507.00
2022-12-28T21:06:45.922Z,99511.97
2022-12-28T21:09:12.634Z,99503.22
2022-12-28T21:11:39.450Z,99499.97
2022-12-28T21:14:06.272Z,99496.47
2022-12-28T21:16:33.807Z,99502.28
2022-12-28T21:19:00.470Z,99491.16
2022-12-28T21:21:26.999Z,99497.56
2022-12-28T21:24:02.887Z,99485.63
2022-12-28T21:26:55.604Z,99483.81
2022-12-28T21:29:26.024Z,99489.13
2022-12-28T21:31:53.263Z,99485.66
2022-12-28T21:34:23.303Z,99485.16
2022-12-28T21:37:36.973Z,99481.53
2022-12-28T21:40:09.737Z,99485.91
2022-12-28T21:42:36.440Z,99484.63
2022-12-28T21:45:04.128Z,99475.91
2022-12-28T21:47:31.098Z,99475.59
2022-12-28T21:49:58.141Z,99475.06
2022-12-28T21:52:24.869Z,99472.38
2022-12-28T21:54:51.542Z,99471.28
2022-12-28T21:57:18.279Z,99463.25
2022-12-28T21:59:44.795Z,99464.03
2022-12-28T22:02:35.719Z,99453.91
2022-12-28T22:05:03.598Z,99451.28
2022-12-28T22:07:30.767Z,99452.69
2022-12-28T22:10:16.797Z,99442.41
2022-12-28T22:12:43.338Z,99443.06
2022-12-28T22:15:37.628Z,99439.84
2022-12-28T22:18:07.428Z,99444.31
2022-12-28T22:20:36.903Z,99450.16
2022-12-28T22:23:04.417Z,99446.13
2022-12-28T22:25:31.310Z,99442.06
2022-12-28T22:27:58.588Z,99434.41
2022-12-28T22:30:25.567Z,99424.22
2022-12-28T22:32:52.158Z,99420.66
2022-12-28T22:35:18.835Z,99426.50
2022-12-28T22:37:45.617Z,99418.91
2022-12-28T22:40:13.054Z,99419.75
2022-12-28T22:42:44.078Z,99425.88
2022-12-28T22:45:12.271Z,99418.09
2022-12-28T22:47:39.218Z,99421.53
2022-12-28T22:50:07.921Z,99422.50
2022-12-28T22:52:34.601Z,99418.69
2022-12-28T22:55:01.302Z,99416.66
2022-12-28T22:57:28.225Z,99414.97
2022-12-28T22:59:54.760Z,99420.78
